sensor_id;sensor_type;location;lat;lon;timestamp;P1;durP1;ratioP1;P2;durP2;ratioP2
72437;SDS011;60444;43.534;-5.674;2023-03-26T00:00:36;8.03;;;2.03;;
72437;SDS011;60444;43.534;-5.674;2023-03-26T00:03:04;9.25;;;2.83;;
72437;SDS011;60444;43.534;-5.674;2023-03-26T00:05:30;9.15;;;2.47;;
72437;SDS011;60444;43.534;-5.674;2023-03-26T00:07:56;9.50;;;2.07;;
72437;SDS011;60444;43.534;-5.674;2023-03-26T00:10:22;13.50;;;2.10;;
72437;SDS011;60444;43.534;-5.674;2023-03-26T00:12:49;9.00;;;2.08;;
72437;SDS011;60444;43.534;-5.674;2023-03-26T00:15:15;7.78;;;1.70;;
72437;SDS011;60444;43.534;-5.674;2023-03-26T00:17:40;7.73;;;1.50;;
72437;SDS011;60444;43.534;-5.674;2023-03-26T00:20:06;6.43;;;1.03;;
72437;SDS011;60444;43.534;-5.674;2023-03-26T00:22:33;5.60;;;1.23;;
72437;SDS011;60444;43.534;-5.674;2023-03-26T00:24:58;5.23;;;1.30;;
72437;SDS011;60444;43.534;-5.674;2023-03-26T00:27:25;4.28;;;1.00;;
72437;SDS011;60444;43.534;-5.674;2023-03-26T00:29:51;5.30;;;1.20;;
72437;SDS011;60444;43.534;-5.674;2023-03-26T00:32:20;5.00;;;0.80;;
72437;SDS011;60444;43.534;-5.674;2023-03-26T00:34:46;2.73;;;0.63;;
72437;SDS011;60444;43.534;-5.674;2023-03-26T00:37:11;8.43;;;1.33;;
72437;SDS011;60444;43.534;-5.674;2023-03-26T00:39:38;12.23;;;2.30;;
72437;SDS011;60444;43.534;-5.674;2023-03-26T00:42:04;12.20;;;2.10;;
72437;SDS011;60444;43.534;-5.674;2023-03-26T00:44:32;18.23;;;2.47;;
72437;SDS011;60444;43.534;-5.674;2023-03-26T00:46:58;13.73;;;2.90;;
72437;SDS011;60444;43.534;-5.674;2023-03-26T00:49:24;16.40;;;3.00;;
72437;SDS011;60444;43.534;-5.674;2023-03-26T00:51:50;12.85;;;1.83;;
72437;SDS011;60444;43.534;-5.674;2023-03-26T00:54:17;18.73;;;2.87;;
72437;SDS011;60444;43.534;-5.674;2023-03-26T00:56:45;15.80;;;2.20;;
72437;SDS011;60444;43.534;-5.674;2023-03-26T00:59:11;18.63;;;2.80;;
72437;SDS011;60444;43.534;-5.674;2023-03-26T01:01:36;18.33;;;2.60;;
72437;SDS011;60444;43.534;-5.674;2023-03-26T01:06:52;21.13;;;2.63;;
72437;SDS011;60444;43.534;-5.674;2023-03-26T01:09:24;18.85;;;3.13;;
72437;SDS011;60444;43.534;-5.674;2023-03-26T01:11:57;18.45;;;2.67;;
72437;SDS011;60444;43.534;-5.674;2023-03-26T01:14:25;17.37;;;2.60;;
72437;SDS011;60444;43.534;-5.674;2023-03-26T01:16:53;17.08;;;2.42;;
72437;SDS011;60444;43.534;-5.674;2023-03-26T01:21:53;13.48;;;1.55;;
72437;SDS011;60444;43.534;-5.674;2023-03-26T01:24:19;14.47;;;2.10;;
72437;SDS011;60444;43.534;-5.674;2023-03-26T01:38:34;10.83;;;1.80;;
72437;SDS011;60444;43.534;-5.674;2023-03-26T01:44:42;6.78;;;1.15;;
72437;SDS011;60444;43.534;-5.674;2023-03-26T01:47:09;9.57;;;1.90;;
72437;SDS011;60444;43.534;-5.674;2023-03-26T01:49:37;9.60;;;1.52;;
72437;SDS011;60444;43.534;-5.674;2023-03-26T01:52:05;6.57;;;1.23;;
72437;SDS011;60444;43.534;-5.674;2023-03-26T01:54:36;17.80;;;3.10;;
72437;SDS011;60444;43.534;-5.674;2023-03-26T01:59:49;16.58;;;2.85;;
72437;SDS011;60444;43.534;-5.674;2023-03-26T02:05:30;18.20;;;3.92;;
72437;SDS011;60444;43.534;-5.674;2023-03-26T02:08:07;16.85;;;3.03;;
72437;SDS011;60444;43.534;-5.674;2023-03-26T02:10:44;17.17;;;2.90;;
72437;SDS011;60444;43.534;-5.674;2023-03-26T02:13:11;12.77;;;2.55;;
72437;SDS011;60444;43.534;-5.674;2023-03-26T02:15:40;9.32;;;1.67;;
72437;SDS011;60444;43.534;-5.674;2023-03-26T02:18:19;8.88;;;1.50;;
72437;SDS011;60444;43.534;-5.674;2023-03-26T02:20:48;7.75;;;1.77;;
72437;SDS011;60444;43.534;-5.674;2023-03-26T02:23:17;7.70;;;1.70;;
72437;SDS011;60444;43.534;-5.674;2023-03-26T02:25:45;9.77;;;2.00;;
72437;SDS011;60444;43.534;-5.674;2023-03-26T02:28:10;8.10;;;1.98;;
72437;SDS011;60444;43.534;-5.674;2023-03-26T02:30:36;10.17;;;1.50;;
72437;SDS011;60444;43.534;-5.674;2023-03-26T02:33:02;7.13;;;1.40;;
72437;SDS011;60444;43.534;-5.674;2023-03-26T02:35:27;8.50;;;1.77;;
72437;SDS011;60444;43.534;-5.674;2023-03-26T02:37:53;10.32;;;1.50;;
72437;SDS011;60444;43.534;-5.674;2023-03-26T02:40:18;18.43;;;2.73;;
72437;SDS011;60444;43.534;-5.674;2023-03-26T02:42:46;19.52;;;2.83;;
72437;SDS011;60444;43.534;-5.674;2023-03-26T02:45:12;10.43;;;2.10;;
72437;SDS011;60444;43.534;-5.674;2023-03-26T02:47:38;14.35;;;2.53;;
72437;SDS011;60444;43.534;-5.674;2023-03-26T02:50:03;12.87;;;1.67;;
72437;SDS011;60444;43.534;-5.674;2023-03-26T02:52:32;8.80;;;1.77;;
72437;SDS011;60444;43.534;-5.674;2023-03-26T02:54:57;7.45;;;1.88;;
72437;SDS011;60444;43.534;-5.674;2023-03-26T02:57:23;8.73;;;1.63;;
72437;SDS011;60444;43.534;-5.674;2023-03-26T02:59:49;8.60;;;1.33;;
72437;SDS011;60444;43.534;-5.674;2023-03-26T03:02:16;11.95;;;1.90;;
72437;SDS011;60444;43.534;-5.674;2023-03-26T03:04:43;12.03;;;2.20;;
72437;SDS011;60444;43.534;-5.674;2023-03-26T03:07:09;11.95;;;2.33;;
72437;SDS011;60444;43.534;-5.674;2023-03-26T03:09:38;11.43;;;1.95;;
72437;SDS011;60444;43.534;-5.674;2023-03-26T03:12:04;15.07;;;1.88;;
72437;SDS011;60444;43.534;-5.674;2023-03-26T03:14:30;7.00;;;1.60;;
72437;SDS011;60444;43.534;-5.674;2023-03-26T03:16:55;10.88;;;1.90;;
72437;SDS011;60444;43.534;-5.674;2023-03-26T03:19:21;10.37;;;1.77;;
72437;SDS011;60444;43.534;-5.674;2023-03-26T03:21:47;9.23;;;1.77;;
72437;SDS011;60444;43.534;-5.674;2023-03-26T03:24:12;13.50;;;2.53;;
72437;SDS011;60444;43.534;-5.674;2023-03-26T03:26:42;11.85;;;2.05;;
72437;SDS011;60444;43.534;-5.674;2023-03-26T03:29:09;7.73;;;1.83;;
72437;SDS011;60444;43.534;-5.674;2023-03-26T03:31:37;9.85;;;1.60;;
72437;SDS011;60444;43.534;-5.674;2023-03-26T03:34:02;13.75;;;2.30;;
72437;SDS011;60444;43.534;-5.674;2023-03-26T03:36:28;15.20;;;2.87;;
72437;SDS011;60444;43.534;-5.674;2023-03-26T03:38:54;10.77;;;1.90;;
72437;SDS011;60444;43.534;-5.674;2023-03-26T03:41:20;11.90;;;1.50;;
72437;SDS011;60444;43.534;-5.674;2023-03-26T03:43:45;15.60;;;1.93;;
72437;SDS011;60444;43.534;-5.674;2023-03-26T03:46:11;10.00;;;1.23;;
72437;SDS011;60444;43.534;-5.674;2023-03-26T03:48:36;8.63;;;1.70;;
72437;SDS011;60444;43.534;-5.674;2023-03-26T03:51:02;10.65;;;1.75;;
72437;SDS011;60444;43.534;-5.674;2023-03-26T03:53:28;16.90;;;2.30;;
72437;SDS011;60444;43.534;-5.674;2023-03-26T03:55:54;10.15;;;1.40;;
72437;SDS011;60444;43.534;-5.674;2023-03-26T03:58:21;10.90;;;2.13;;
72437;SDS011;60444;43.534;-5.674;2023-03-26T04:00:48;12.93;;;1.70;;
72437;SDS011;60444;43.534;-5.674;2023-03-26T04:03:14;9.23;;;2.00;;
72437;SDS011;60444;43.534;-5.674;2023-03-26T04:05:40;9.53;;;1.37;;
72437;SDS011;60444;43.534;-5.674;2023-03-26T04:08:07;9.55;;;1.85;;
72437;SDS011;60444;43.534;-5.674;2023-03-26T04:10:33;14.88;;;2.38;;
72437;SDS011;60444;43.534;-5.674;2023-03-26T04:12:58;11.13;;;1.57;;
72437;SDS011;60444;43.534;-5.674;2023-03-26T04:15:24;15.70;;;2.80;;
72437;SDS011;60444;43.534;-5.674;2023-03-26T04:17:49;9.00;;;1.55;;
72437;SDS011;60444;43.534;-5.674;2023-03-26T04:20:16;8.98;;;1.70;;
72437;SDS011;60444;43.534;-5.674;2023-03-26T04:22:43;12.73;;;2.77;;
72437;SDS011;60444;43.534;-5.674;2023-03-26T04:25:09;11.90;;;1.58;;
72437;SDS011;60444;43.534;-5.674;2023-03-26T04:27:36;6.25;;;1.30;;
72437;SDS011;60444;43.534;-5.674;2023-03-26T04:30:03;8.95;;;1.55;;
72437;SDS011;60444;43.534;-5.674;2023-03-26T04:32:30;7.32;;;1.70;;
72437;SDS011;60444;43.534;-5.674;2023-03-26T04:35:02;14.07;;;2.00;;
72437;SDS011;60444;43.534;-5.674;2023-03-26T04:37:32;13.50;;;2.28;;
72437;SDS011;60444;43.534;-5.674;2023-03-26T04:40:04;9.82;;;1.60;;
72437;SDS011;60444;43.534;-5.674;2023-03-26T04:42:34;13.38;;;1.92;;
72437;SDS011;60444;43.534;-5.674;2023-03-26T04:45:02;10.13;;;1.58;;
72437;SDS011;60444;43.534;-5.674;2023-03-26T04:47:29;9.73;;;1.77;;
72437;SDS011;60444;43.534;-5.674;2023-03-26T04:49:55;10.18;;;1.80;;
72437;SDS011;60444;43.534;-5.674;2023-03-26T04:52:20;11.60;;;1.53;;
72437;SDS011;60444;43.534;-5.674;2023-03-26T04:54:46;9.57;;;1.30;;
72437;SDS011;60444;43.534;-5.674;2023-03-26T04:57:17;6.97;;;1.20;;
72437;SDS011;60444;43.534;-5.674;2023-03-26T04:59:45;11.48;;;1.83;;
72437;SDS011;60444;43.534;-5.674;2023-03-26T05:02:11;10.93;;;1.70;;
72437;SDS011;60444;43.534;-5.674;2023-03-26T05:04:38;9.80;;;1.50;;
72437;SDS011;60444;43.534;-5.674;2023-03-26T05:07:04;12.83;;;2.00;;
72437;SDS011;60444;43.534;-5.674;2023-03-26T05:09:30;13.18;;;1.88;;
72437;SDS011;60444;43.534;-5.674;2023-03-26T05:11:55;14.00;;;1.67;;
72437;SDS011;60444;43.534;-5.674;2023-03-26T05:14:22;11.35;;;1.80;;
72437;SDS011;60444;43.534;-5.674;2023-03-26T05:16:48;8.50;;;1.50;;
72437;SDS011;60444;43.534;-5.674;2023-03-26T05:19:14;8.55;;;1.65;;
72437;SDS011;60444;43.534;-5.674;2023-03-26T05:21:40;12.90;;;2.00;;
72437;SDS011;60444;43.534;-5.674;2023-03-26T05:24:05;7.23;;;1.10;;
72437;SDS011;60444;43.534;-5.674;2023-03-26T05:26:32;10.90;;;1.85;;
72437;SDS011;60444;43.534;-5.674;2023-03-26T05:28:58;7.32;;;1.48;;
72437;SDS011;60444;43.534;-5.674;2023-03-26T05:31:23;12.57;;;1.60;;
72437;SDS011;60444;43.534;-5.674;2023-03-26T05:33:51;10.63;;;1.75;;
72437;SDS011;60444;43.534;-5.674;2023-03-26T05:36:17;13.20;;;1.47;;
72437;SDS011;60444;43.534;-5.674;2023-03-26T05:38:43;11.63;;;1.58;;
72437;SDS011;60444;43.534;-5.674;2023-03-26T05:41:14;6.65;;;1.30;;
72437;SDS011;60444;43.534;-5.674;2023-03-26T05:43:40;8.48;;;1.70;;
72437;SDS011;60444;43.534;-5.674;2023-03-26T05:46:07;8.70;;;1.88;;
72437;SDS011;60444;43.534;-5.674;2023-03-26T05:48:33;5.70;;;0.83;;
72437;SDS011;60444;43.534;-5.674;2023-03-26T05:50:59;6.27;;;1.40;;
72437;SDS011;60444;43.534;-5.674;2023-03-26T05:53:25;8.00;;;1.08;;
72437;SDS011;60444;43.534;-5.674;2023-03-26T05:55:51;8.27;;;1.70;;
72437;SDS011;60444;43.534;-5.674;2023-03-26T05:58:24;7.47;;;1.63;;
72437;SDS011;60444;43.534;-5.674;2023-03-26T06:00:57;8.33;;;2.00;;
72437;SDS011;60444;43.534;-5.674;2023-03-26T06:03:24;5.55;;;1.38;;
72437;SDS011;60444;43.534;-5.674;2023-03-26T06:05:50;8.18;;;1.63;;
72437;SDS011;60444;43.534;-5.674;2023-03-26T06:08:16;8.20;;;1.37;;
72437;SDS011;60444;43.534;-5.674;2023-03-26T06:10:43;9.57;;;2.13;;
72437;SDS011;60444;43.534;-5.674;2023-03-26T06:13:09;6.25;;;1.48;;
72437;SDS011;60444;43.534;-5.674;2023-03-26T06:15:34;8.17;;;1.43;;
72437;SDS011;60444;43.534;-5.674;2023-03-26T06:18:00;9.10;;;1.40;;
72437;SDS011;60444;43.534;-5.674;2023-03-26T06:20:25;9.30;;;1.45;;
72437;SDS011;60444;43.534;-5.674;2023-03-26T06:22:51;6.00;;;0.90;;
72437;SDS011;60444;43.534;-5.674;2023-03-26T06:25:16;6.57;;;1.20;;
72437;SDS011;60444;43.534;-5.674;2023-03-26T06:27:42;6.60;;;1.60;;
72437;SDS011;60444;43.534;-5.674;2023-03-26T06:30:07;7.00;;;1.03;;
72437;SDS011;60444;43.534;-5.674;2023-03-26T06:32:33;8.27;;;1.45;;
72437;SDS011;60444;43.534;-5.674;2023-03-26T06:34:59;9.47;;;0.97;;
72437;SDS011;60444;43.534;-5.674;2023-03-26T06:37:24;6.67;;;1.40;;
72437;SDS011;60444;43.534;-5.674;2023-03-26T06:39:50;7.20;;;1.10;;
72437;SDS011;60444;43.534;-5.674;2023-03-26T06:42:15;6.87;;;1.10;;
72437;SDS011;60444;43.534;-5.674;2023-03-26T06:44:41;6.88;;;1.13;;
72437;SDS011;60444;43.534;-5.674;2023-03-26T06:47:06;6.50;;;1.37;;
72437;SDS011;60444;43.534;-5.674;2023-03-26T06:49:32;8.37;;;1.37;;
72437;SDS011;60444;43.534;-5.674;2023-03-26T06:51:58;6.78;;;1.13;;
72437;SDS011;60444;43.534;-5.674;2023-03-26T06:54:26;8.50;;;1.00;;
72437;SDS011;60444;43.534;-5.674;2023-03-26T06:56:52;4.85;;;1.08;;
72437;SDS011;60444;43.534;-5.674;2023-03-26T06:59:17;7.63;;;1.23;;
72437;SDS011;60444;43.534;-5.674;2023-03-26T07:01:43;5.50;;;1.10;;
72437;SDS011;60444;43.534;-5.674;2023-03-26T07:04:09;6.20;;;1.00;;
72437;SDS011;60444;43.534;-5.674;2023-03-26T07:06:34;7.03;;;1.00;;
72437;SDS011;60444;43.534;-5.674;2023-03-26T07:09:00;6.40;;;1.03;;
72437;SDS011;60444;43.534;-5.674;2023-03-26T07:11:25;7.60;;;0.93;;
72437;SDS011;60444;43.534;-5.674;2023-03-26T07:13:51;4.32;;;0.73;;
72437;SDS011;60444;43.534;-5.674;2023-03-26T07:16:17;6.47;;;1.13;;
72437;SDS011;60444;43.534;-5.674;2023-03-26T07:18:42;6.97;;;1.17;;
72437;SDS011;60444;43.534;-5.674;2023-03-26T07:21:08;6.85;;;0.95;;
72437;SDS011;60444;43.534;-5.674;2023-03-26T07:23:34;7.88;;;1.33;;
72437;SDS011;60444;43.534;-5.674;2023-03-26T07:26:01;4.97;;;0.80;;
72437;SDS011;60444;43.534;-5.674;2023-03-26T07:28:44;4.53;;;0.98;;
72437;SDS011;60444;43.534;-5.674;2023-03-26T07:31:19;5.93;;;0.95;;
72437;SDS011;60444;43.534;-5.674;2023-03-26T07:34:12;7.72;;;1.02;;
72437;SDS011;60444;43.534;-5.674;2023-03-26T07:36:56;6.63;;;0.95;;
72437;SDS011;60444;43.534;-5.674;2023-03-26T07:39:46;5.17;;;0.80;;
72437;SDS011;60444;43.534;-5.674;2023-03-26T07:47:50;10.25;;;1.08;;
72437;SDS011;60444;43.534;-5.674;2023-03-26T07:50:18;6.88;;;1.20;;
72437;SDS011;60444;43.534;-5.674;2023-03-26T07:52:46;8.40;;;1.00;;
72437;SDS011;60444;43.534;-5.674;2023-03-26T07:55:13;9.00;;;1.33;;
72437;SDS011;60444;43.534;-5.674;2023-03-26T08:05:30;8.70;;;1.15;;
72437;SDS011;60444;43.534;-5.674;2023-03-26T08:10:36;7.32;;;1.23;;
72437;SDS011;60444;43.534;-5.674;2023-03-26T08:16:08;5.60;;;1.00;;
72437;SDS011;60444;43.534;-5.674;2023-03-26T08:18:58;6.70;;;1.20;;
72437;SDS011;60444;43.534;-5.674;2023-03-26T08:21:33;6.45;;;1.23;;
72437;SDS011;60444;43.534;-5.674;2023-03-26T08:29:52;9.82;;;1.65;;
72437;SDS011;60444;43.534;-5.674;2023-03-26T08:32:15;10.10;;;1.65;;
72437;SDS011;60444;43.534;-5.674;2023-03-26T08:34:42;5.85;;;1.23;;
72437;SDS011;60444;43.534;-5.674;2023-03-26T08:37:08;9.32;;;1.48;;
72437;SDS011;60444;43.534;-5.674;2023-03-26T08:39:37;10.87;;;1.73;;
72437;SDS011;60444;43.534;-5.674;2023-03-26T08:56:17;7.93;;;1.35;;
72437;SDS011;60444;43.534;-5.674;2023-03-26T08:58:56;9.77;;;2.30;;
72437;SDS011;60444;43.534;-5.674;2023-03-26T09:19:01;8.27;;;1.40;;
72437;SDS011;60444;43.534;-5.674;2023-03-26T09:30:11;9.75;;;1.10;;
72437;SDS011;60444;43.534;-5.674;2023-03-26T09:35:39;6.87;;;1.27;;
72437;SDS011;60444;43.534;-5.674;2023-03-26T09:57:05;7.75;;;1.75;;
72437;SDS011;60444;43.534;-5.674;2023-03-26T09:59:53;5.88;;;1.23;;
72437;SDS011;60444;43.534;-5.674;2023-03-26T10:11:10;6.95;;;1.50;;
72437;SDS011;60444;43.534;-5.674;2023-03-26T10:13:56;6.90;;;1.13;;
72437;SDS011;60444;43.534;-5.674;2023-03-26T10:20:01;9.70;;;1.50;;
72437;SDS011;60444;43.534;-5.674;2023-03-26T10:25:14;9.13;;;1.80;;
72437;SDS011;60444;43.534;-5.674;2023-03-26T10:33:13;12.80;;;1.65;;
72437;SDS011;60444;43.534;-5.674;2023-03-26T10:43:39;8.63;;;1.70;;
72437;SDS011;60444;43.534;-5.674;2023-03-26T10:46:18;8.52;;;1.58;;
72437;SDS011;60444;43.534;-5.674;2023-03-26T10:48:54;8.95;;;1.48;;
72437;SDS011;60444;43.534;-5.674;2023-03-26T10:54:41;6.43;;;1.53;;
72437;SDS011;60444;43.534;-5.674;2023-03-26T11:00:24;6.60;;;1.25;;
72437;SDS011;60444;43.534;-5.674;2023-03-26T11:05:54;10.35;;;1.70;;
72437;SDS011;60444;43.534;-5.674;2023-03-26T11:16:16;10.32;;;1.48;;
72437;SDS011;60444;43.534;-5.674;2023-03-26T11:19:01;9.60;;;1.45;;
72437;SDS011;60444;43.534;-5.674;2023-03-26T11:21:44;10.27;;;1.87;;
72437;SDS011;60444;43.534;-5.674;2023-03-26T11:33:18;8.95;;;1.75;;
72437;SDS011;60444;43.534;-5.674;2023-03-26T11:35:49;8.83;;;2.07;;
72437;SDS011;60444;43.534;-5.674;2023-03-26T11:41:04;9.27;;;1.80;;
72437;SDS011;60444;43.534;-5.674;2023-03-26T11:43:37;21.33;;;2.83;;
72437;SDS011;60444;43.534;-5.674;2023-03-26T11:46:03;13.80;;;2.33;;
72437;SDS011;60444;43.534;-5.674;2023-03-26T11:48:40;8.85;;;1.80;;
72437;SDS011;60444;43.534;-5.674;2023-03-26T11:51:17;11.65;;;1.90;;
72437;SDS011;60444;43.534;-5.674;2023-03-26T11:53:47;10.03;;;1.67;;
72437;SDS011;60444;43.534;-5.674;2023-03-26T11:58:54;10.18;;;1.55;;
72437;SDS011;60444;43.534;-5.674;2023-03-26T12:01:57;10.63;;;1.67;;
72437;SDS011;60444;43.534;-5.674;2023-03-26T12:04:44;11.25;;;2.10;;
72437;SDS011;60444;43.534;-5.674;2023-03-26T12:09:54;8.57;;;1.38;;
72437;SDS011;60444;43.534;-5.674;2023-03-26T12:12:23;11.35;;;1.65;;
72437;SDS011;60444;43.534;-5.674;2023-03-26T12:14:50;9.93;;;1.52;;
72437;SDS011;60444;43.534;-5.674;2023-03-26T12:17:37;11.70;;;1.23;;
72437;SDS011;60444;43.534;-5.674;2023-03-26T12:22:49;9.95;;;0.90;;
72437;SDS011;60444;43.534;-5.674;2023-03-26T12:25:18;5.30;;;1.10;;
72437;SDS011;60444;43.534;-5.674;2023-03-26T12:30:50;8.52;;;1.20;;
72437;SDS011;60444;43.534;-5.674;2023-03-26T12:33:27;15.40;;;1.50;;
72437;SDS011;60444;43.534;-5.674;2023-03-26T12:35:58;9.98;;;1.10;;
72437;SDS011;60444;43.534;-5.674;2023-03-26T12:38:40;6.53;;;1.20;;
72437;SDS011;60444;43.534;-5.674;2023-03-26T12:41:10;5.78;;;0.93;;
72437;SDS011;60444;43.534;-5.674;2023-03-26T12:43:43;7.32;;;1.02;;
72437;SDS011;60444;43.534;-5.674;2023-03-26T12:46:25;8.53;;;1.70;;
72437;SDS011;60444;43.534;-5.674;2023-03-26T12:48:59;13.00;;;1.80;;
72437;SDS011;60444;43.534;-5.674;2023-03-26T12:51:38;7.97;;;1.88;;
72437;SDS011;60444;43.534;-5.674;2023-03-26T13:02:40;13.70;;;1.60;;
72437;SDS011;60444;43.534;-5.674;2023-03-26T13:16:33;14.70;;;2.10;;
72437;SDS011;60444;43.534;-5.674;2023-03-26T13:25:07;14.25;;;1.67;;
72437;SDS011;60444;43.534;-5.674;2023-03-26T13:35:45;10.53;;;2.10;;
72437;SDS011;60444;43.534;-5.674;2023-03-26T13:40:56;12.60;;;1.65;;
72437;SDS011;60444;43.534;-5.674;2023-03-26T13:43:35;9.32;;;1.45;;
72437;SDS011;60444;43.534;-5.674;2023-03-26T13:53:57;9.60;;;1.67;;
72437;SDS011;60444;43.534;-5.674;2023-03-26T13:56:32;9.65;;;1.40;;
72437;SDS011;60444;43.534;-5.674;2023-03-26T13:59:49;9.73;;;1.50;;
72437;SDS011;60444;43.534;-5.674;2023-03-26T14:02:01;9.00;;;1.57;;
72437;SDS011;60444;43.534;-5.674;2023-03-26T14:04:35;9.05;;;1.55;;
72437;SDS011;60444;43.534;-5.674;2023-03-26T14:07:21;12.18;;;2.30;;
72437;SDS011;60444;43.534;-5.674;2023-03-26T14:12:48;14.77;;;2.78;;
72437;SDS011;60444;43.534;-5.674;2023-03-26T14:15:18;12.63;;;1.70;;
72437;SDS011;60444;43.534;-5.674;2023-03-26T14:17:52;9.60;;;1.38;;
72437;SDS011;60444;43.534;-5.674;2023-03-26T14:25:52;9.00;;;1.55;;
72437;SDS011;60444;43.534;-5.674;2023-03-26T14:44:55;12.50;;;1.70;;
72437;SDS011;60444;43.534;-5.674;2023-03-26T14:47:46;14.88;;;1.70;;
72437;SDS011;60444;43.534;-5.674;2023-03-26T14:50:22;14.43;;;2.05;;
72437;SDS011;60444;43.534;-5.674;2023-03-26T14:52:51;14.63;;;2.53;;
72437;SDS011;60444;43.534;-5.674;2023-03-26T15:20:53;12.67;;;1.77;;
72437;SDS011;60444;43.534;-5.674;2023-03-26T15:41:12;11.27;;;1.80;;
72437;SDS011;60444;43.534;-5.674;2023-03-26T15:46:25;10.20;;;1.60;;
72437;SDS011;60444;43.534;-5.674;2023-03-26T15:49:13;13.35;;;1.50;;
72437;SDS011;60444;43.534;-5.674;2023-03-26T15:54:29;12.20;;;2.00;;
72437;SDS011;60444;43.534;-5.674;2023-03-26T15:59:55;11.93;;;1.92;;
72437;SDS011;60444;43.534;-5.674;2023-03-26T16:13:29;16.92;;;2.47;;
72437;SDS011;60444;43.534;-5.674;2023-03-26T16:29:03;13.43;;;2.33;;
72437;SDS011;60444;43.534;-5.674;2023-03-26T16:31:33;10.20;;;2.40;;
72437;SDS011;60444;43.534;-5.674;2023-03-26T16:36:34;9.38;;;1.85;;
72437;SDS011;60444;43.534;-5.674;2023-03-26T16:46:51;11.63;;;1.50;;
72437;SDS011;60444;43.534;-5.674;2023-03-26T16:49:40;11.45;;;1.60;;
72437;SDS011;60444;43.534;-5.674;2023-03-26T17:03:49;11.25;;;2.78;;
72437;SDS011;60444;43.534;-5.674;2023-03-26T17:14:18;14.10;;;2.27;;
72437;SDS011;60444;43.534;-5.674;2023-03-26T17:19:32;12.82;;;1.55;;
72437;SDS011;60444;43.534;-5.674;2023-03-26T17:22:11;13.07;;;1.83;;
72437;SDS011;60444;43.534;-5.674;2023-03-26T17:33:40;14.93;;;2.05;;
72437;SDS011;60444;43.534;-5.674;2023-03-26T17:41:11;10.70;;;1.93;;
72437;SDS011;60444;43.534;-5.674;2023-03-26T17:43:41;12.50;;;2.60;;
72437;SDS011;60444;43.534;-5.674;2023-03-26T17:54:23;13.25;;;1.88;;
72437;SDS011;60444;43.534;-5.674;2023-03-26T17:56:53;9.45;;;1.30;;
72437;SDS011;60444;43.534;-5.674;2023-03-26T17:59:24;11.20;;;1.87;;
72437;SDS011;60444;43.534;-5.674;2023-03-26T18:01:56;15.32;;;2.40;;
72437;SDS011;60444;43.534;-5.674;2023-03-26T18:04:28;13.35;;;1.85;;
72437;SDS011;60444;43.534;-5.674;2023-03-26T18:18:39;9.55;;;1.80;;
72437;SDS011;60444;43.534;-5.674;2023-03-26T18:21:33;16.10;;;1.98;;
72437;SDS011;60444;43.534;-5.674;2023-03-26T18:24:02;16.10;;;2.35;;
72437;SDS011;60444;43.534;-5.674;2023-03-26T18:26:38;17.30;;;1.70;;
72437;SDS011;60444;43.534;-5.674;2023-03-26T18:32:01;20.77;;;3.05;;
72437;SDS011;60444;43.534;-5.674;2023-03-26T18:34:28;14.38;;;1.60;;
72437;SDS011;60444;43.534;-5.674;2023-03-26T18:42:39;14.55;;;2.53;;
72437;SDS011;60444;43.534;-5.674;2023-03-26T18:45:08;26.27;;;4.25;;
72437;SDS011;60444;43.534;-5.674;2023-03-26T18:48:19;17.02;;;2.28;;
72437;SDS011;60444;43.534;-5.674;2023-03-26T18:51:01;13.77;;;2.13;;
72437;SDS011;60444;43.534;-5.674;2023-03-26T18:53:30;15.20;;;3.23;;
72437;SDS011;60444;43.534;-5.674;2023-03-26T18:56:01;15.55;;;2.80;;
72437;SDS011;60444;43.534;-5.674;2023-03-26T18:58:51;18.30;;;2.50;;
72437;SDS011;60444;43.534;-5.674;2023-03-26T19:01:20;21.27;;;3.05;;
72437;SDS011;60444;43.534;-5.674;2023-03-26T19:03:46;11.55;;;2.38;;
72437;SDS011;60444;43.534;-5.674;2023-03-26T19:06:12;15.50;;;2.23;;
72437;SDS011;60444;43.534;-5.674;2023-03-26T19:08:40;14.60;;;2.60;;
72437;SDS011;60444;43.534;-5.674;2023-03-26T19:11:09;21.60;;;2.28;;
72437;SDS011;60444;43.534;-5.674;2023-03-26T19:13:37;13.88;;;1.98;;
72437;SDS011;60444;43.534;-5.674;2023-03-26T19:16:28;17.60;;;2.95;;
72437;SDS011;60444;43.534;-5.674;2023-03-26T19:18:58;20.67;;;3.57;;
72437;SDS011;60444;43.534;-5.674;2023-03-26T19:21:25;16.08;;;2.85;;
72437;SDS011;60444;43.534;-5.674;2023-03-26T19:23:51;13.93;;;2.08;;
72437;SDS011;60444;43.534;-5.674;2023-03-26T19:26:19;14.27;;;3.53;;
72437;SDS011;60444;43.534;-5.674;2023-03-26T19:28:45;16.15;;;3.13;;
72437;SDS011;60444;43.534;-5.674;2023-03-26T19:36:28;17.17;;;2.50;;
72437;SDS011;60444;43.534;-5.674;2023-03-26T19:43:58;12.80;;;2.65;;
72437;SDS011;60444;43.534;-5.674;2023-03-26T19:46:26;15.00;;;2.33;;
72437;SDS011;60444;43.534;-5.674;2023-03-26T19:48:53;16.23;;;3.10;;
72437;SDS011;60444;43.534;-5.674;2023-03-26T19:51:21;19.25;;;2.42;;
72437;SDS011;60444;43.534;-5.674;2023-03-26T19:53:53;22.15;;;3.03;;
72437;SDS011;60444;43.534;-5.674;2023-03-26T19:56:22;20.30;;;2.80;;
72437;SDS011;60444;43.534;-5.674;2023-03-26T19:58:48;18.03;;;2.00;;
72437;SDS011;60444;43.534;-5.674;2023-03-26T20:01:18;17.95;;;2.38;;
72437;SDS011;60444;43.534;-5.674;2023-03-26T20:03:47;12.27;;;2.20;;
72437;SDS011;60444;43.534;-5.674;2023-03-26T20:06:16;18.60;;;2.08;;
72437;SDS011;60444;43.534;-5.674;2023-03-26T20:08:43;19.33;;;2.92;;
72437;SDS011;60444;43.534;-5.674;2023-03-26T20:11:11;13.67;;;1.80;;
72437;SDS011;60444;43.534;-5.674;2023-03-26T20:13:46;15.27;;;1.95;;
72437;SDS011;60444;43.534;-5.674;2023-03-26T20:16:19;12.02;;;2.60;;
72437;SDS011;60444;43.534;-5.674;2023-03-26T20:18:51;15.73;;;2.42;;
72437;SDS011;60444;43.534;-5.674;2023-03-26T20:21:16;11.47;;;1.97;;
72437;SDS011;60444;43.534;-5.674;2023-03-26T20:23:42;12.77;;;2.03;;
72437;SDS011;60444;43.534;-5.674;2023-03-26T20:26:11;13.03;;;1.90;;
72437;SDS011;60444;43.534;-5.674;2023-03-26T20:28:39;14.75;;;2.20;;
72437;SDS011;60444;43.534;-5.674;2023-03-26T20:31:05;20.42;;;2.10;;
72437;SDS011;60444;43.534;-5.674;2023-03-26T20:33:32;18.40;;;2.50;;
72437;SDS011;60444;43.534;-5.674;2023-03-26T20:35:58;17.97;;;3.30;;
72437;SDS011;60444;43.534;-5.674;2023-03-26T20:38:24;12.98;;;2.03;;
72437;SDS011;60444;43.534;-5.674;2023-03-26T20:40:51;10.73;;;2.03;;
72437;SDS011;60444;43.534;-5.674;2023-03-26T20:43:18;8.18;;;1.63;;
72437;SDS011;60444;43.534;-5.674;2023-03-26T20:45:45;8.63;;;1.60;;
72437;SDS011;60444;43.534;-5.674;2023-03-26T20:48:12;8.82;;;1.23;;
72437;SDS011;60444;43.534;-5.674;2023-03-26T20:50:38;8.20;;;1.73;;
72437;SDS011;60444;43.534;-5.674;2023-03-26T20:53:13;9.87;;;1.60;;
72437;SDS011;60444;43.534;-5.674;2023-03-26T20:55:43;12.45;;;2.25;;
72437;SDS011;60444;43.534;-5.674;2023-03-26T20:58:14;9.55;;;1.60;;
72437;SDS011;60444;43.534;-5.674;2023-03-26T21:00:46;9.20;;;1.70;;
72437;SDS011;60444;43.534;-5.674;2023-03-26T21:03:14;10.75;;;2.00;;
72437;SDS011;60444;43.534;-5.674;2023-03-26T21:05:41;15.13;;;1.80;;
72437;SDS011;60444;43.534;-5.674;2023-03-26T21:08:14;9.40;;;1.67;;
72437;SDS011;60444;43.534;-5.674;2023-03-26T21:10:42;9.43;;;1.55;;
72437;SDS011;60444;43.534;-5.674;2023-03-26T21:15:54;10.02;;;2.42;;
72437;SDS011;60444;43.534;-5.674;2023-03-26T21:18:21;10.10;;;1.53;;
72437;SDS011;60444;43.534;-5.674;2023-03-26T21:20:49;7.88;;;1.30;;
72437;SDS011;60444;43.534;-5.674;2023-03-26T21:23:28;9.52;;;1.52;;
72437;SDS011;60444;43.534;-5.674;2023-03-26T21:26:10;11.18;;;2.03;;
72437;SDS011;60444;43.534;-5.674;2023-03-26T21:28:50;9.38;;;1.80;;
72437;SDS011;60444;43.534;-5.674;2023-03-26T21:31:20;8.27;;;1.40;;
72437;SDS011;60444;43.534;-5.674;2023-03-26T21:33:48;18.50;;;2.72;;
72437;SDS011;60444;43.534;-5.674;2023-03-26T21:36:15;12.45;;;2.10;;
72437;SDS011;60444;43.534;-5.674;2023-03-26T21:38:42;13.82;;;2.08;;